createdAt,value
2024-05-09T00:00:46.184Z,81.32
2024-05-09T00:03:34.435Z,81.18
2024-05-09T00:06:02.649Z,81.39
2024-05-09T00:08:30.813Z,81.06
2024-05-09T00:10:59.129Z,81.13
2024-05-09T00:13:27.155Z,80.94
2024-05-09T00:15:55.046Z,80.96
2024-05-09T00:18:23.141Z,80.81
2024-05-09T00:20:51.500Z,80.83
2024-05-09T00:23:19.824Z,80.73
2024-05-09T00:25:48.086Z,80.66
2024-05-09T00:28:16.328Z,80.59
2024-05-09T00:30:44.758Z,80.54
2024-05-09T00:33:12.923Z,80.40
2024-05-09T00:35:41.357Z,80.37
2024-05-09T00:38:10.273Z,80.12
2024-05-09T00:40:43.302Z,80.13
2024-05-09T00:43:12.962Z,80.07
2024-05-09T00:45:42.244Z,80.08
2024-05-09T00:48:13.395Z,80.10
2024-05-09T00:50:44.123Z,80.13
2024-05-09T00:53:13.318Z,80.17
2024-05-09T00:55:41.576Z,79.98
2024-05-09T00:58:10.726Z,79.88
2024-05-09T01:00:40.824Z,79.97
2024-05-09T01:03:11.862Z,79.85
2024-05-09T01:05:42.537Z,79.62
2024-05-09T01:08:11.204Z,79.50
2024-05-09T01:10:41.749Z,79.47
2024-05-09T01:13:12.116Z,79.51
2024-05-09T01:15:40.201Z,79.46
2024-05-09T01:18:10.571Z,79.44
2024-05-09T01:20:42.860Z,79.51
2024-05-09T01:23:14.867Z,79.53
2024-05-09T01:25:45.912Z,79.42
2024-05-09T01:28:14.859Z,79.46
2024-05-09T01:30:42.807Z,79.47
2024-05-09T01:33:12.399Z,79.49
2024-05-09T01:35:42.537Z,79.57
2024-05-09T01:38:16.992Z,79.43
2024-05-09T01:40:45.821Z,79.59
2024-05-09T01:43:14.433Z,79.57
2024-05-09T01:45:42.506Z,80.08
2024-05-09T01:48:11.304Z,80.41
2024-05-09T01:50:42.405Z,80.47
2024-05-09T01:53:13.637Z,80.26
2024-05-09T01:55:42.570Z,80.36
2024-05-09T01:58:10.878Z,80.36
2024-05-09T02:00:42.179Z,80.56
2024-05-09T02:03:15.596Z,80.51
2024-05-09T02:05:47.455Z,80.54
2024-05-09T02:08:18.279Z,80.53
2024-05-09T02:10:47.724Z,80.52
2024-05-09T02:13:16.623Z,80.41
2024-05-09T02:15:44.950Z,80.40
2024-05-09T02:18:13.463Z,80.27
2024-05-09T02:20:42.786Z,80.17
2024-05-09T02:23:11.979Z,80.06
2024-05-09T02:25:41.426Z,80.10
2024-05-09T02:28:09.541Z,80.18
2024-05-09T02:30:40.788Z,80.35
2024-05-09T02:33:12.297Z,80.63
2024-05-09T02:35:43.460Z,80.78
2024-05-09T02:38:12.838Z,81.10
2024-05-09T02:40:41.404Z,81.67
2024-05-09T02:43:12.371Z,81.80
2024-05-09T02:45:41.086Z,82.14
2024-05-09T02:48:13.393Z,82.67
2024-05-09T02:50:44.270Z,82.80
2024-05-09T02:53:13.856Z,82.71
2024-05-09T02:55:42.945Z,82.69
2024-05-09T02:58:11.340Z,82.48
2024-05-09T03:00:41.729Z,82.59
2024-05-09T03:03:13.493Z,82.68
2024-05-09T03:05:45.196Z,82.77
2024-05-09T03:08:13.773Z,82.57
2024-05-09T03:10:42.038Z,82.64
2024-05-09T03:13:12.659Z,82.61
2024-05-09T03:15:42.407Z,82.51
2024-05-09T03:18:10.969Z,82.46
2024-05-09T03:20:39.900Z,82.41
2024-05-09T03:23:09.464Z,82.25
2024-05-09T03:25:38.911Z,82.18
2024-05-09T03:28:07.272Z,82.33
2024-05-09T03:30:40.755Z,82.56
2024-05-09T03:33:22.741Z,82.72
2024-05-09T03:35:51.039Z,82.99
2024-05-09T03:38:18.873Z,82.75
2024-05-09T03:40:48.044Z,82.95
2024-05-09T03:43:16.615Z,82.87
2024-05-09T03:45:45.149Z,82.87
2024-05-09T03:48:13.503Z,82.84
2024-05-09T03:50:41.676Z,82.79
2024-05-09T03:53:10.977Z,82.55
2024-05-09T03:55:39.408Z,82.42
2024-05-09T03:58:12.626Z,82.29
2024-05-09T04:00:41.904Z,82.20
2024-05-09T04:03:12.170Z,82.19
2024-05-09T04:05:42.695Z,82.05
2024-05-09T04:08:14.866Z,82.00
2024-05-09T04:10:43.428Z,81.95
2024-05-09T04:13:11.614Z,81.79
2024-05-09T04:15:39.613Z,82.04
2024-05-09T04:18:08.114Z,81.69
2024-05-09T04:20:39.617Z,81.70
2024-05-09T04:23:13.565Z,81.78
2024-05-09T04:25:43.551Z,81.66
2024-05-09T04:28:11.875Z,81.68
2024-05-09T04:30:41.498Z,81.80
2024-05-09T04:33:12.557Z,81.70
2024-05-09T04:35:43.347Z,81.56
2024-05-09T04:38:15.422Z,81.54
2024-05-09T04:40:43.918Z,81.39
2024-05-09T04:43:16.153Z,81.33
2024-05-09T04:45:44.394Z,80.97
2024-05-09T04:48:12.674Z,80.89
2024-05-09T04:50:41.137Z,80.81
2024-05-09T04:53:10.830Z,80.46
2024-05-09T04:55:40.423Z,79.90
2024-05-09T04:58:09.118Z,79.99
2024-05-09T05:00:39.129Z,79.71
2024-05-09T05:03:12.779Z,79.39
2024-05-09T05:05:44.973Z,79.33
2024-05-09T05:08:18.637Z,79.35
2024-05-09T05:10:48.536Z,79.54
2024-05-09T05:13:21.590Z,79.64
2024-05-09T05:15:58.123Z,79.78
2024-05-09T05:18:27.658Z,79.79
2024-05-09T05:20:56.674Z,79.93
2024-05-09T05:23:25.014Z,79.86
2024-05-09T05:25:55.380Z,79.89
2024-05-09T05:28:23.978Z,79.77
2024-05-09T05:30:52.207Z,79.89
2024-05-09T05:33:22.324Z,80.04
2024-05-09T05:35:51.214Z,80.33
2024-05-09T05:38:21.947Z,80.57
2024-05-09T05:40:52.170Z,80.45
2024-05-09T05:43:20.484Z,80.49
2024-05-09T05:45:48.597Z,80.57
2024-05-09T05:48:17.431Z,80.88
2024-05-09T05:50:46.327Z,81.11
2024-05-09T05:53:14.783Z,81.48
2024-05-09T05:55:43.117Z,81.82
2024-05-09T05:58:11.970Z,82.10
2024-05-09T06:00:41.693Z,82.33
2024-05-09T06:03:12.342Z,82.27
2024-05-09T06:05:43.194Z,82.30
2024-05-09T06:08:12.058Z,82.46
2024-05-09T06:10:41.436Z,82.18
2024-05-09T06:13:13.500Z,82.45
2024-05-09T06:15:42.608Z,83.16
2024-05-09T06:18:12.372Z,83.15
2024-05-09T06:20:43.012Z,83.02
2024-05-09T06:23:12.708Z,83.27
2024-05-09T06:25:42.083Z,83.42
2024-05-09T06:28:10.668Z,83.36
2024-05-09T06:30:41.949Z,83.90
2024-05-09T06:33:13.330Z,83.98
2024-05-09T06:35:44.617Z,84.00
2024-05-09T06:38:13.189Z,84.10
2024-05-09T06:40:43.640Z,83.67
2024-05-09T06:43:17.860Z,83.56
2024-05-09T06:45:50.629Z,83.54
2024-05-09T06:48:19.602Z,83.35
2024-05-09T06:50:48.393Z,83.12
2024-05-09T06:53:17.062Z,82.94
2024-05-09T06:55:45.289Z,82.46
2024-05-09T06:58:13.535Z,82.21
2024-05-09T07:00:42.343Z,82.22
2024-05-09T07:03:13.175Z,82.05
2024-05-09T07:05:43.419Z,81.72
2024-05-09T07:08:11.767Z,81.13
2024-05-09T07:10:39.945Z,81.15
2024-05-09T07:13:09.656Z,81.09
2024-05-09T07:15:38.086Z,81.19
2024-05-09T07:18:13.254Z,80.90
2024-05-09T07:20:41.973Z,80.64
2024-05-09T07:23:10.731Z,80.21
2024-05-09T07:25:39.806Z,80.01
2024-05-09T07:28:17.533Z,80.10
2024-05-09T07:30:45.767Z,80.04
2024-05-09T07:33:22.201Z,79.96
2024-05-09T07:35:52.235Z,79.84
2024-05-09T07:38:20.586Z,79.74
2024-05-09T07:40:49.105Z,79.24
2024-05-09T07:43:17.305Z,78.41
2024-05-09T07:45:52.479Z,78.80
2024-05-09T07:52:38.484Z,78.33
2024-05-09T07:53:47.238Z,78.00
2024-05-09T07:56:21.198Z,77.77
2024-05-09T07:58:51.635Z,77.64
2024-05-09T08:01:20.498Z,77.22
2024-05-09T08:03:50.857Z,77.51
2024-05-09T08:06:19.187Z,77.58
2024-05-09T08:08:47.563Z,77.05
2024-05-09T08:11:15.671Z,76.77
2024-05-09T08:13:43.910Z,76.70
2024-05-09T08:16:13.552Z,76.68
2024-05-09T08:18:43.023Z,76.40
2024-05-09T08:21:11.173Z,76.30
2024-05-09T08:23:39.258Z,76.70
2024-05-09T08:26:07.329Z,76.67
2024-05-09T08:28:35.440Z,76.51
2024-05-09T08:31:06.897Z,76.25
2024-05-09T08:33:36.200Z,76.48
2024-05-09T08:36:04.650Z,76.51
2024-05-09T08:38:32.879Z,76.21
2024-05-09T08:41:02.056Z,76.29
2024-05-09T08:43:30.320Z,76.39
2024-05-09T08:45:58.977Z,75.99
2024-05-09T08:48:27.208Z,75.76
2024-05-09T08:50:59.191Z,75.76
2024-05-09T08:53:27.535Z,75.67
2024-05-09T08:55:55.550Z,75.89
2024-05-09T08:58:23.634Z,75.57
2024-05-09T09:00:51.781Z,75.80
2024-05-09T09:03:21.779Z,75.80
2024-05-09T09:06:12.066Z,75.56
2024-05-09T09:08:40.425Z,75.38
2024-05-09T09:11:08.660Z,75.29
2024-05-09T09:13:36.573Z,75.39
2024-05-09T09:16:05.086Z,75.55
2024-05-09T09:18:34.333Z,75.51
2024-05-09T09:21:03.225Z,75.42
2024-05-09T09:23:31.520Z,75.46
2024-05-09T09:26:00.258Z,75.53
2024-05-09T09:28:29.333Z,75.78
2024-05-09T09:31:01.985Z,75.90
2024-05-09T09:33:31.233Z,75.88
2024-05-09T09:36:00.372Z,75.44
2024-05-09T09:38:29.352Z,75.68
2024-05-09T09:40:57.867Z,75.85
2024-05-09T09:43:25.917Z,75.71
2024-05-09T09:45:55.817Z,75.54
2024-05-09T09:48:24.077Z,75.57
2024-05-09T09:50:52.746Z,75.78
2024-05-09T09:53:22.512Z,75.83
2024-05-09T09:55:51.357Z,75.63
2024-05-09T09:58:19.578Z,75.73
2024-05-09T10:00:51.193Z,75.58
2024-05-09T10:03:19.646Z,75.52
2024-05-09T10:05:48.568Z,75.59
2024-05-09T10:08:17.516Z,75.33
2024-05-09T10:10:47.118Z,75.48
2024-05-09T10:13:15.950Z,75.57
2024-05-09T10:15:50.456Z,75.74
2024-05-09T10:18:27.105Z,75.73
2024-05-09T10:20:57.778Z,75.69
2024-05-09T10:23:30.098Z,75.82
2024-05-09T10:26:03.250Z,76.21
2024-05-09T10:28:36.718Z,76.58
2024-05-09T10:31:15.591Z,76.67
2024-05-09T10:33:51.852Z,76.74
2024-05-09T10:36:22.131Z,76.92
2024-05-09T10:38:50.870Z,77.10
2024-05-09T10:41:19.671Z,77.16
2024-05-09T10:43:48.001Z,77.30
2024-05-09T10:46:16.699Z,77.14
2024-05-09T10:48:45.543Z,77.22
2024-05-09T10:51:13.949Z,77.03
2024-05-09T10:53:46.640Z,78.22
2024-05-09T10:56:15.042Z,77.90
2024-05-09T10:58:43.330Z,77.59
2024-05-09T11:01:11.829Z,77.47
2024-05-09T11:03:40.517Z,77.49
2024-05-09T11:06:09.557Z,77.86
2024-05-09T11:08:37.784Z,77.80
2024-05-09T11:11:07.468Z,78.13
2024-05-09T11:13:37.920Z,78.36
2024-05-09T11:16:15.949Z,78.95
2024-05-09T11:18:44.434Z,78.85
2024-05-09T11:21:13.535Z,78.94
2024-05-09T11:23:41.994Z,79.04
2024-05-09T11:26:11.267Z,79.28
2024-05-09T11:28:39.509Z,79.74
2024-05-09T11:31:09.393Z,80.52
2024-05-09T11:33:43.951Z,81.20
2024-05-09T11:36:12.741Z,82.03
2024-05-09T11:38:41.144Z,82.63
2024-05-09T11:41:09.115Z,83.18
2024-05-09T11:43:37.307Z,83.69
2024-05-09T11:46:05.502Z,84.04
2024-05-09T11:48:34.105Z,84.25
2024-05-09T11:51:02.316Z,84.60
2024-05-09T11:53:30.271Z,84.88
2024-05-09T11:55:58.317Z,84.73
2024-05-09T11:58:26.521Z,84.67
2024-05-09T12:00:54.798Z,84.30
2024-05-09T12:03:22.956Z,84.04
2024-05-09T12:05:51.423Z,83.83
2024-05-09T12:08:19.849Z,83.66
2024-05-09T12:10:48.040Z,83.78
2024-05-09T12:13:16.752Z,83.50
2024-05-09T12:15:44.816Z,83.41
2024-05-09T12:18:12.986Z,83.11
2024-05-09T12:20:41.109Z,82.42
2024-05-09T12:23:10.379Z,81.78
2024-05-09T12:25:39.837Z,81.70
2024-05-09T12:28:08.588Z,81.78
2024-05-09T12:30:39.999Z,81.85
2024-05-09T12:33:13.197Z,81.20
2024-05-09T12:35:44.372Z,81.14
2024-05-09T12:38:15.281Z,80.87
2024-05-09T12:40:43.855Z,80.78
2024-05-09T12:43:12.324Z,80.72
2024-05-09T12:45:40.643Z,80.50
2024-05-09T12:48:11.713Z,80.40
2024-05-09T12:50:40.843Z,80.19
2024-05-09T12:53:09.273Z,80.16
2024-05-09T12:55:44.798Z,79.69
2024-05-09T12:58:24.400Z,79.86
2024-05-09T13:00:52.976Z,79.59
2024-05-09T13:03:21.922Z,79.44
2024-05-09T13:05:50.773Z,79.50
2024-05-09T13:08:18.759Z,79.39
2024-05-09T13:10:47.385Z,79.08
2024-05-09T13:13:15.899Z,78.13
2024-05-09T13:15:43.988Z,77.75
2024-05-09T13:18:12.098Z,78.62
2024-05-09T13:20:40.651Z,79.35
2024-05-09T13:23:08.897Z,79.87
2024-05-09T13:25:38.158Z,80.02
2024-05-09T13:28:07.167Z,80.01
2024-05-09T13:30:40.324Z,80.54
2024-05-09T13:33:12.016Z,80.41
2024-05-09T13:35:47.833Z,79.79
2024-05-09T13:38:19.245Z,80.34
2024-05-09T13:40:48.291Z,80.55
2024-05-09T13:43:17.383Z,80.52
2024-05-09T13:45:45.858Z,80.23
2024-05-09T13:48:14.255Z,80.22
2024-05-09T13:50:42.403Z,79.86
2024-05-09T13:53:10.436Z,78.86
2024-05-09T13:55:38.803Z,79.03
2024-05-09T13:58:07.420Z,77.96
2024-05-09T14:00:44.908Z,77.66
2024-05-09T14:03:19.152Z,77.60
2024-05-09T14:05:50.622Z,76.13
2024-05-09T14:08:21.280Z,78.39
2024-05-09T14:10:49.712Z,80.04
2024-05-09T14:13:18.511Z,78.39
2024-05-09T14:15:46.971Z,77.80
2024-05-09T14:18:15.293Z,76.94
2024-05-09T14:20:43.465Z,77.15
2024-05-09T14:23:11.466Z,77.50
2024-05-09T14:25:42.610Z,77.39
2024-05-09T14:28:13.060Z,76.61
2024-05-09T14:30:42.403Z,76.49
2024-05-09T14:33:11.571Z,76.51
2024-05-09T14:35:40.023Z,75.94
2024-05-09T14:38:08.934Z,75.73
2024-05-09T14:40:42.229Z,75.26
2024-05-09T14:43:13.747Z,74.96
2024-05-09T14:45:43.452Z,74.09
2024-05-09T14:48:14.521Z,73.50
2024-05-09T14:50:42.902Z,72.92
2024-05-09T14:53:11.644Z,74.13
2024-05-09T14:55:41.175Z,74.13
2024-05-09T14:58:11.407Z,72.20
2024-05-09T15:00:47.735Z,72.74
2024-05-09T15:03:19.637Z,73.23
2024-05-09T15:05:48.402Z,73.04
2024-05-09T15:08:17.332Z,72.79
2024-05-09T15:10:45.662Z,72.36
2024-05-09T15:13:16.404Z,71.36
2024-05-09T15:15:45.486Z,70.80
2024-05-09T15:18:14.320Z,70.93
2024-05-09T15:20:43.581Z,71.26
2024-05-09T15:23:11.861Z,71.30
2024-05-09T15:25:40.355Z,70.77
2024-05-09T15:28:08.712Z,69.92
2024-05-09T15:30:37.350Z,70.04
2024-05-09T15:33:07.189Z,68.83
2024-05-09T15:35:40.987Z,67.12
2024-05-09T15:38:09.151Z,67.60
2024-05-09T15:40:40.061Z,67.27
2024-05-09T15:43:10.588Z,68.08
2024-05-09T15:45:41.890Z,68.83
2024-05-09T15:48:10.747Z,68.28
2024-05-09T15:50:41.612Z,67.88
2024-05-09T15:53:12.398Z,67.94
2024-05-09T15:55:42.275Z,67.51
2024-05-09T15:58:10.793Z,68.20
2024-05-09T16:00:42.382Z,67.51
2024-05-09T16:03:13.276Z,67.03
2024-05-09T16:05:43.752Z,67.60
2024-05-09T16:08:12.491Z,68.22
2024-05-09T16:10:44.393Z,68.70
2024-05-09T16:13:14.015Z,69.05
2024-05-09T16:15:43.440Z,69.61
2024-05-09T16:18:11.707Z,70.26
2024-05-09T16:20:42.131Z,70.96
2024-05-09T16:23:12.552Z,71.72
2024-05-09T16:25:45.093Z,72.37
2024-05-09T16:28:13.093Z,73.12
2024-05-09T16:30:41.565Z,73.33
2024-05-09T16:33:11.668Z,73.31
2024-05-09T16:35:40.355Z,73.00
2024-05-09T16:38:08.497Z,72.98
2024-05-09T16:40:39.976Z,73.86
2024-05-09T16:43:10.745Z,74.14
2024-05-09T16:45:39.827Z,74.35
2024-05-09T16:48:08.770Z,74.58
2024-05-09T16:50:37.154Z,75.03
2024-05-09T16:53:06.580Z,75.29
2024-05-09T16:55:35.764Z,75.35
2024-05-09T16:58:05.012Z,75.57
2024-05-09T17:00:40.715Z,75.59
2024-05-09T17:03:15.692Z,75.31
2024-05-09T17:05:48.427Z,75.42
2024-05-09T17:08:17.808Z,75.84
2024-05-09T17:10:48.691Z,75.96
2024-05-09T17:13:18.300Z,76.30
2024-05-09T17:15:46.768Z,76.51
2024-05-09T17:18:15.649Z,76.82
2024-05-09T17:20:43.689Z,76.55
2024-05-09T17:23:14.915Z,76.69
2024-05-09T17:25:43.158Z,76.58
2024-05-09T17:28:11.694Z,76.36
2024-05-09T17:30:41.740Z,76.52
2024-05-09T17:33:11.974Z,76.35
2024-05-09T17:35:41.095Z,76.37
2024-05-09T17:38:09.241Z,76.18
2024-05-09T17:40:38.896Z,76.48
2024-05-09T17:43:09.461Z,76.33
2024-05-09T17:45:40.495Z,76.23
2024-05-09T17:48:10.692Z,76.25
2024-05-09T17:50:40.203Z,76.41
2024-05-09T17:53:09.312Z,76.90
2024-05-09T17:55:37.669Z,76.80
2024-05-09T17:58:05.999Z,76.85
2024-05-09T18:00:39.415Z,77.75
2024-05-09T18:03:13.982Z,78.01
2024-05-09T18:05:44.789Z,78.17
2024-05-09T18:08:13.904Z,77.99
2024-05-09T18:10:42.503Z,77.57
2024-05-09T18:13:12.080Z,77.33
2024-05-09T18:15:40.820Z,77.21
2024-05-09T18:18:10.196Z,76.98
2024-05-09T18:20:43.708Z,76.91
2024-05-09T18:23:16.416Z,76.97
2024-05-09T18:25:47.037Z,76.76
2024-05-09T18:28:16.722Z,76.10
2024-05-09T18:30:45.304Z,75.93
2024-05-09T18:33:13.927Z,75.69
2024-05-09T18:35:42.913Z,75.58
2024-05-09T18:38:11.026Z,75.79
2024-05-09T18:40:41.016Z,75.70
2024-05-09T18:43:11.526Z,75.73
2024-05-09T18:45:39.984Z,75.37
2024-05-09T18:48:09.654Z,75.55
2024-05-09T18:50:40.572Z,75.38
2024-05-09T18:53:11.569Z,74.27
2024-05-09T18:55:41.642Z,73.72
2024-05-09T18:58:09.751Z,73.46
2024-05-09T19:00:40.374Z,73.06
2024-05-09T19:03:13.200Z,73.98
2024-05-09T19:05:44.661Z,74.52
2024-05-09T19:08:14.806Z,74.75
2024-05-09T19:10:45.214Z,74.74
2024-05-09T19:13:14.364Z,74.71
2024-05-09T19:15:43.956Z,74.90
2024-05-09T19:18:13.626Z,75.26
2024-05-09T19:20:43.070Z,75.22
2024-05-09T19:23:11.479Z,75.40
2024-05-09T19:25:39.728Z,75.62
2024-05-09T19:28:07.764Z,76.01
2024-05-09T19:30:40.276Z,75.85
2024-05-09T19:33:12.704Z,75.64
2024-05-09T19:35:42.812Z,75.01
2024-05-09T19:38:11.805Z,74.32
2024-05-09T19:40:40.128Z,74.16
2024-05-09T19:43:08.532Z,74.40
2024-05-09T19:45:37.008Z,74.22
2024-05-09T19:48:06.573Z,74.15
2024-05-09T19:50:41.635Z,74.13
2024-05-09T19:53:13.754Z,74.34
2024-05-09T19:55:42.155Z,74.48
2024-05-09T19:58:10.430Z,74.54
2024-05-09T20:00:41.504Z,74.54
2024-05-09T20:03:13.560Z,74.45
2024-05-09T20:05:43.810Z,74.45
2024-05-09T20:08:12.226Z,75.49
2024-05-09T20:10:40.344Z,75.88
2024-05-09T20:13:08.937Z,75.61
2024-05-09T20:15:37.965Z,75.33
2024-05-09T20:18:06.976Z,75.18
2024-05-09T20:20:39.821Z,75.00
2024-05-09T20:23:11.453Z,74.94
2024-05-09T20:25:40.273Z,73.97
2024-05-09T20:28:08.494Z,73.88
2024-05-09T20:30:36.883Z,74.02
2024-05-09T20:33:09.445Z,74.25
2024-05-09T20:35:38.189Z,74.31
2024-05-09T20:38:06.174Z,74.33
2024-05-09T20:40:37.677Z,74.46
2024-05-09T20:43:08.339Z,74.45
2024-05-09T20:45:36.717Z,74.49
2024-05-09T20:48:06.158Z,74.50
2024-05-09T20:50:39.319Z,74.39
2024-05-09T20:53:11.562Z,74.24
2024-05-09T20:55:40.147Z,74.41
2024-05-09T20:58:09.119Z,74.51
2024-05-09T21:00:41.114Z,74.63
2024-05-09T21:03:12.828Z,73.66
2024-05-09T21:05:41.939Z,72.41
2024-05-09T21:08:10.053Z,73.04
2024-05-09T21:10:38.419Z,73.33
2024-05-09T21:13:07.262Z,73.37
2024-05-09T21:15:36.210Z,73.37
2024-05-09T21:18:05.185Z,73.63
2024-05-09T21:20:34.421Z,74.23
2024-05-09T21:23:03.831Z,74.07
2024-05-09T21:25:32.423Z,73.99
2024-05-09T21:28:00.894Z,73.80
2024-05-09T21:30:38.524Z,73.15
2024-05-09T21:33:12.901Z,72.41
2024-05-09T21:35:43.204Z,73.33
2024-05-09T21:38:13.166Z,73.32
2024-05-09T21:40:41.197Z,73.33
2024-05-09T21:43:09.369Z,72.10
2024-05-09T21:45:37.876Z,72.31
2024-05-09T21:48:06.983Z,72.40
2024-05-09T21:50:40.561Z,71.63
2024-05-09T21:53:11.563Z,71.80
2024-05-09T21:55:40.102Z,72.20
2024-05-09T21:58:08.247Z,72.73
2024-05-09T22:00:39.214Z,72.82
2024-05-09T22:03:08.920Z,72.59
2024-05-09T22:05:38.922Z,72.82
2024-05-09T22:08:07.606Z,73.09
2024-05-09T22:10:36.812Z,72.94
2024-05-09T22:13:06.263Z,73.16
2024-05-09T22:15:36.809Z,74.81
2024-05-09T22:18:06.402Z,74.95
2024-05-09T22:20:38.234Z,75.01
2024-05-09T22:23:08.410Z,75.27
2024-05-09T22:25:38.276Z,75.43
2024-05-09T22:28:07.222Z,76.02
2024-05-09T22:30:38.787Z,75.85
2024-05-09T22:33:09.904Z,76.32
2024-05-09T22:35:40.014Z,77.03
2024-05-09T22:38:08.371Z,77.04
2024-05-09T22:40:45.396Z,77.51
2024-05-09T22:43:21.513Z,76.93
2024-05-09T22:45:51.962Z,76.97
2024-05-09T22:48:20.378Z,76.91
2024-05-09T22:50:48.733Z,76.80
2024-05-09T22:53:18.133Z,77.02
2024-05-09T22:55:46.170Z,77.21
2024-05-09T22:58:14.138Z,76.98
2024-05-09T23:00:42.188Z,77.06
2024-05-09T23:03:10.535Z,77.07
2024-05-09T23:05:38.758Z,77.09
2024-05-09T23:08:08.494Z,78.44
2024-05-09T23:10:38.006Z,77.77
2024-05-09T23:13:07.682Z,77.71
2024-05-09T23:15:37.129Z,77.51
2024-05-09T23:18:05.872Z,77.64
2024-05-09T23:20:38.274Z,78.55
2024-05-09T23:23:08.789Z,78.33
2024-05-09T23:25:37.733Z,78.40
2024-05-09T23:28:06.515Z,78.32
2024-05-09T23:30:38.759Z,79.11
2024-05-09T23:33:12.682Z,81.20
2024-05-09T23:35:41.754Z,80.08
2024-05-09T23:38:09.816Z,80.62
2024-05-09T23:40:40.526Z,82.05
2024-05-09T23:43:10.612Z,82.70
2024-05-09T23:45:39.257Z,83.27
2024-05-09T23:48:07.976Z,81.89
2024-05-09T23:50:38.380Z,81.80
2024-05-09T23:53:10.524Z,81.91
2024-05-09T23:55:39.315Z,81.48
2024-05-09T23:58:08.345Z,82.42
